Mobile Site You Are Here >  >  >  > Jonathan Schoop 2011 Minor League Gamelogs & Splits


Photo of Jonathan Schoop


Jonathan Schoop    \Scope\

Jonathan Rufino Jezus Schoop

Positions: Shortstop, Second Baseman and Third Baseman
Bats: Right, Throws: Right
Height: 6' 2", Weight: 210 lb.

Born: October 16, 1991 in Willemstad, CW

Prospect Ratings by Baseball America:
Pre-2012: Rated #82 Prospect
Prospect Ratings by BaseballProspectus.com:
Pre-2012: Rated #85 Prospect
Pre-2013: Rated #80 Prospect
Pre-2014: Rated #82 Prospect

Major League Stats

Jonathan Schoop
/ Gamelogs & Splits
 Batting: 2014 / 2013 / 2012 / 2011 / 2010 / 2009

2011 Player Batting Gamelog

Rk Date Lev Tm   Opp PA AB R H 2B 3B HR RBI BB IBB SO HBP SH SF GDP SB CS Pos E
1 2011-04-07 A-SALL Delmarva Shorebirds Greensboro Grasshoppers 3 3 0 0 0 0 0 0 0 0 1 0 0 0 0 0 0 3B 0
2 2011-04-09 A-SALL Delmarva Shorebirds Greensboro Grasshoppers 3 2 0 1 0 0 0 0 1 0 0 0 0 0 0 0 0 3B 1
3 2011-04-09 (2) A-SALL Delmarva Shorebirds Greensboro Grasshoppers 6 4 0 0 0 0 0 0 1 0 0 0 1 0 1 0 0 SS 0
4 2011-04-10 A-SALL Delmarva Shorebirds Greensboro Grasshoppers 5 5 3 2 0 1 0 0 0 0 0 0 0 0 0 0 0 3B 0
5 2011-04-11 A-SALL Delmarva Shorebirds Kannapolis Intimidators 4 3 0 0 0 0 0 0 1 0 2 0 0 0 0 0 0 3B 0
6 2011-04-13 A-SALL Delmarva Shorebirds Kannapolis Intimidators 4 4 1 3 0 1 0 0 0 0 0 0 0 0 0 0 0 3B 0
7 2011-04-14 A-SALL Delmarva Shorebirds Kannapolis Intimidators 5 5 0 1 0 0 0 2 0 0 1 0 0 0 0 0 0 SS 0
8 2011-04-15 A-SALL Delmarva Shorebirds @ Greensboro Grasshoppers 5 5 2 3 1 0 1 4 0 0 0 0 0 0 0 0 1 3B 0
9 2011-04-16 A-SALL Delmarva Shorebirds @ Greensboro Grasshoppers 5 3 1 1 1 0 0 0 2 0 0 0 0 0 0 0 0 3B 2
10 2011-04-17 A-SALL Delmarva Shorebirds @ Greensboro Grasshoppers 5 5 0 1 0 0 0 0 0 0 0 0 0 0 0 0 0 3B 0
11 2011-04-18 A-SALL Delmarva Shorebirds @ Greensboro Grasshoppers 4 4 1 2 0 0 1 2 0 0 1 0 0 0 0 0 0 3B 0
12 2011-04-19 A-SALL Delmarva Shorebirds @ Augusta GreenJackets 5 4 1 3 0 0 0 1 0 0 1 1 0 0 0 0 0 3B 0
13 2011-04-20 A-SALL Delmarva Shorebirds @ Augusta GreenJackets 6 5 2 1 0 0 0 0 1 0 0 0 0 0 0 0 0 3B 1
14 2011-04-21 A-SALL Delmarva Shorebirds @ Augusta GreenJackets 6 5 1 2 0 0 0 0 1 0 0 0 0 0 0 0 0 3B 0
15 2011-04-22 A-SALL Delmarva Shorebirds @ Augusta GreenJackets 4 4 0 1 0 0 0 0 0 0 0 0 0 0 1 0 0 3B 0
16 2011-04-23 A-SALL Delmarva Shorebirds @ Augusta GreenJackets 5 4 1 1 1 0 0 0 1 0 2 0 0 0 0 1 0 SS 2
17 2011-04-25 A-SALL Delmarva Shorebirds Savannah Sand Gnats 4 4 0 0 0 0 0 0 0 0 1 0 0 0 0 0 0 3B 0
18 2011-04-26 A-SALL Delmarva Shorebirds Savannah Sand Gnats 6 6 1 2 1 0 1 2 0 0 0 0 0 0 0 0 0 3B 2
19 2011-04-27 A-SALL Delmarva Shorebirds Savannah Sand Gnats 5 5 0 1 0 0 0 1 0 0 0 0 0 0 0 0 0 2B 0
20 2011-04-28 A-SALL Delmarva Shorebirds Savannah Sand Gnats 5 5 2 3 1 0 0 2 0 0 0 0 0 0 1 0 0 3B 0
21 2011-04-29 A-SALL Delmarva Shorebirds Savannah Sand Gnats 5 5 0 0 0 0 0 0 0 0 2 0 0 0 1 0 0 3B 1
22 2011-05-01 A-SALL Delmarva Shorebirds Charleston RiverDogs 4 4 1 2 0 0 0 0 0 0 0 0 0 0 0 0 0 3B 0
23 2011-05-02 A-SALL Delmarva Shorebirds Charleston RiverDogs 5 5 3 3 2 0 0 0 0 0 0 0 0 0 0 0 0 3B,SS 0
24 2011-05-03 A-SALL Delmarva Shorebirds Charleston RiverDogs 4 4 0 2 0 0 0 0 0 0 1 0 0 0 0 0 0 3B 1
25 2011-05-05 A-SALL Delmarva Shorebirds @ Asheville Tourists 5 5 1 1 0 0 0 0 0 0 1 0 0 0 1 0 0 SS 0
26 2011-05-06 A-SALL Delmarva Shorebirds @ Asheville Tourists 5 4 2 1 0 0 1 3 0 0 1 0 0 1 0 0 0 SS 1
27 2011-05-07 A-SALL Delmarva Shorebirds @ Asheville Tourists 5 4 1 1 0 0 0 1 1 0 0 0 0 0 0 0 0 SS 0
28 2011-05-08 A-SALL Delmarva Shorebirds @ Asheville Tourists 6 6 1 1 0 0 0 1 0 0 2 0 0 0 1 0 0 SS 0
29 2011-05-09 A-SALL Delmarva Shorebirds @ Hagerstown Suns 4 4 1 1 0 0 0 0 0 0 0 0 0 0 0 0 0 SS 0
30 2011-05-10 A-SALL Delmarva Shorebirds @ Hagerstown Suns 4 3 1 1 0 0 0 0 1 0 0 0 0 0 0 0 0 SS 1
31 2011-05-11 A-SALL Delmarva Shorebirds @ Hagerstown Suns 4 4 1 1 0 0 0 0 0 0 0 0 0 0 0 0 0 SS 0
32 2011-05-12 A-SALL Delmarva Shorebirds @ Hagerstown Suns 5 4 1 3 0 0 0 0 1 0 1 0 0 0 0 1 0 SS 0
33 2011-05-13 A-SALL Delmarva Shorebirds Greensboro Grasshoppers 5 3 1 1 0 0 0 0 2 0 1 0 0 0 0 0 0 SS 1
34 2011-05-14 A-SALL Delmarva Shorebirds Greensboro Grasshoppers 4 4 2 2 0 1 1 2 0 0 1 0 0 0 1 0 0 SS 0
35 2011-05-15 A-SALL Delmarva Shorebirds Greensboro Grasshoppers 5 4 2 1 0 0 0 0 1 0 0 0 0 0 0 0 0 SS 0
36 2011-05-16 A-SALL Delmarva Shorebirds Greensboro Grasshoppers 3 3 0 1 1 0 0 1 0 0 0 0 0 0 0 0 0 SS 0
37 2011-05-17 A-SALL Delmarva Shorebirds Lakewood BlueClaws 5 5 1 1 0 0 0 0 0 0 0 0 0 0 2 0 1 SS 1
38 2011-05-18 A-SALL Delmarva Shorebirds Lakewood BlueClaws 4 4 0 0 0 0 0 0 0 0 4 0 0 0 0 0 0 SS 0
39 2011-05-20 A-SALL Delmarva Shorebirds @ Kannapolis Intimidators 5 4 1 0 0 0 0 0 0 0 0 1 0 0 0 0 0 SS 0
40 2011-05-21 A-SALL Delmarva Shorebirds @ Kannapolis Intimidators 4 4 0 1 0 0 0 0 0 0 0 0 0 0 1 0 0 SS 0
41 2011-05-22 A-SALL Delmarva Shorebirds @ Kannapolis Intimidators 5 5 1 1 1 0 0 1 0 0 2 0 0 0 1 0 0 SS 0
42 2011-05-23 A-SALL Delmarva Shorebirds @ Kannapolis Intimidators 5 4 0 2 1 0 0 4 0 0 0 0 0 1 0 0 0 SS 0
43 2011-05-25 A-SALL Delmarva Shorebirds West Virginia Power 4 4 0 1 1 0 0 0 0 0 1 0 0 0 0 0 0 SS 0
44 2011-05-26 A-SALL Delmarva Shorebirds West Virginia Power 4 3 1 1 0 0 1 2 1 0 0 0 0 0 1 1 0 SS 1
45 2011-05-27 A-SALL Delmarva Shorebirds West Virginia Power 9 8 0 2 1 0 0 0 1 0 2 0 0 0 0 1 1 SS 0
46 2011-05-28 A-SALL Delmarva Shorebirds West Virginia Power 4 4 1 2 0 0 1 1 0 0 1 0 0 0 0 0 0 SS 0
47 2011-05-29 A-SALL Delmarva Shorebirds @ Lakewood BlueClaws 4 4 0 1 0 0 0 0 0 0 2 0 0 0 1 0 0 SS 1
48 2011-05-30 A-SALL Delmarva Shorebirds @ Lakewood BlueClaws 4 3 0 0 0 0 0 0 1 0 1 0 0 0 0 0 0 SS 0
49 2011-06-02 A-SALL Delmarva Shorebirds Hickory Crawdads 4 3 1 0 0 0 0 0 1 0 0 0 0 0 0 0 0 SS 0
50 2011-06-03 A-SALL Delmarva Shorebirds Hickory Crawdads 5 4 3 4 0 0 0 1 1 0 0 0 0 0 0 1 0 SS 0
51 2011-06-04 A-SALL Delmarva Shorebirds Hickory Crawdads 4 2 2 1 0 0 1 3 1 0 0 0 0 1 0 1 0 SS 1
Player Moved from A-SALL to A+-CARL
52 2011-06-05 A+-CARL Frederick Keys Salem Red Sox 4 4 0 2 0 0 0 2 0 0 0 0 0 0 0 0 0 0
53 2011-06-06 A+-CARL Frederick Keys @ Potomac Nationals 4 3 2 1 0 0 0 0 0 0 0 1 0 0 0 0 0 SS 0
54 2011-06-07 A+-CARL Frederick Keys @ Potomac Nationals 5 5 1 1 0 0 0 0 0 0 2 0 0 0 0 0 0 2B 0
55 2011-06-08 A+-CARL Frederick Keys @ Potomac Nationals 5 5 1 2 2 0 0 1 0 0 0 0 0 0 0 0 0 2B 0
56 2011-06-09 A+-CARL Frederick Keys @ Potomac Nationals 4 4 0 3 0 0 0 0 0 0 0 0 0 0 0 0 0 3B 0
57 2011-06-10 A+-CARL Frederick Keys Lynchburg Hillcats 5 5 0 1 0 0 0 1 0 0 0 0 0 0 0 0 0 SS 0
58 2011-06-11 A+-CARL Frederick Keys Lynchburg Hillcats 4 3 1 1 0 0 0 0 1 0 0 0 0 0 0 0 0 SS 3
59 2011-06-12 A+-CARL Frederick Keys Lynchburg Hillcats 3 3 0 0 0 0 0 0 0 0 0 0 0 0 0 0 0 SS 0
60 2011-06-13 A+-CARL Frederick Keys @ Winston-Salem Dash 5 4 1 1 0 0 0 0 1 0 0 0 0 0 0 1 0 SS 0
61 2011-06-14 A+-CARL Frederick Keys @ Winston-Salem Dash 5 5 1 1 0 0 0 0 0 0 1 0 0 0 0 0 0 2B 1
62 2011-06-15 A+-CARL Frederick Keys @ Winston-Salem Dash 4 4 0 0 0 0 0 0 0 0 0 0 0 0 0 0 0 2B 1
63 2011-06-17 A+-CARL Frederick Keys @ Myrtle Beach Pelicans 4 4 1 3 2 0 0 3 0 0 1 0 0 0 0 0 0 3B 0
64 2011-06-18 A+-CARL Frederick Keys @ Myrtle Beach Pelicans 4 4 0 0 0 0 0 0 0 0 2 0 0 0 0 0 0 SS 1
65 2011-06-23 A+-CARL Frederick Keys Winston-Salem Dash 4 4 0 1 0 0 0 0 0 0 1 0 0 0 0 0 0 2B 0
66 2011-06-24 A+-CARL Frederick Keys Winston-Salem Dash 4 4 0 0 0 0 0 0 0 0 0 0 0 0 1 0 0 2B 0
67 2011-06-25 A+-CARL Frederick Keys Winston-Salem Dash 4 4 0 0 0 0 0 0 0 0 1 0 0 0 0 0 0 2B 0
68 2011-06-26 A+-CARL Frederick Keys Wilmington Blue Rocks 4 4 0 1 0 1 0 1 0 0 0 0 0 0 0 0 0 2B 0
69 2011-06-27 A+-CARL Frederick Keys Wilmington Blue Rocks 4 4 0 1 0 0 0 0 0 0 0 0 0 0 0 0 0 2B 0
70 2011-06-28 A+-CARL Frederick Keys Wilmington Blue Rocks 4 4 0 1 0 0 0 0 0 0 0 0 0 0 0 0 0 2B 0
71 2011-06-29 A+-CARL Frederick Keys @ Lynchburg Hillcats 4 4 0 0 0 0 0 0 0 0 0 0 0 0 0 0 0 2B 0
72 2011-06-30 A+-CARL Frederick Keys @ Lynchburg Hillcats 4 3 0 1 0 0 0 0 1 0 1 0 0 0 1 0 0 2B 0
73 2011-07-01 A+-CARL Frederick Keys @ Lynchburg Hillcats 3 2 0 0 0 0 0 1 1 0 0 0 0 0 0 0 0 3B 0
74 2011-07-02 A+-CARL Frederick Keys @ Kinston Indians 4 4 0 0 0 0 0 0 0 0 0 0 0 0 0 0 0 2B 1
75 2011-07-04 A+-CARL Frederick Keys @ Kinston Indians 5 5 0 0 0 0 0 0 0 0 1 0 0 0 0 0 0 2B 0
76 2011-07-06 A+-CARL Frederick Keys Potomac Nationals 4 4 0 1 0 0 0 1 0 0 0 0 0 0 0 0 0 2B 1
77 2011-07-07 A+-CARL Frederick Keys Potomac Nationals 4 3 0 0 0 0 0 0 0 0 0 0 1 0 0 0 0 2B 0
78 2011-07-08 A+-CARL Frederick Keys Potomac Nationals 4 3 0 0 0 0 0 0 1 0 1 0 0 0 0 0 0 2B 0
79 2011-07-13 A+-CARL Frederick Keys @ Wilmington Blue Rocks 5 5 1 1 0 0 0 0 0 0 1 0 0 0 0 0 0 2B 0
80 2011-07-14 A+-CARL Frederick Keys @ Wilmington Blue Rocks 5 4 1 1 0 0 0 0 1 0 0 0 0 0 0 1 0 2B 0
81 2011-07-15 A+-CARL Frederick Keys @ Wilmington Blue Rocks 5 2 1 0 0 0 0 1 3 1 2 0 0 0 0 0 0 2B,SS 0
82 2011-07-16 A+-CARL Frederick Keys @ Wilmington Blue Rocks 5 4 2 2 0 0 0 0 1 0 0 0 0 0 0 1 0 SS 0
83 2011-07-17 A+-CARL Frederick Keys @ Salem Red Sox 5 4 1 2 0 0 0 0 1 0 0 0 0 0 0 0 0 SS 0
84 2011-07-18 A+-CARL Frederick Keys @ Salem Red Sox 5 3 0 0 0 0 0 0 1 0 2 1 0 0 0 0 0 2B 0
85 2011-07-19 A+-CARL Frederick Keys @ Salem Red Sox 5 5 1 1 0 0 0 1 0 0 2 0 0 0 0 0 0 2B 0
86 2011-07-22 A+-CARL Frederick Keys Myrtle Beach Pelicans 4 4 1 1 0 0 0 0 0 0 2 0 0 0 0 0 0 2B 0
87 2011-07-23 A+-CARL Frederick Keys Myrtle Beach Pelicans 4 4 0 0 0 0 0 0 0 0 0 0 0 0 0 0 0 2B 0
88 2011-07-24 A+-CARL Frederick Keys Myrtle Beach Pelicans 4 4 0 1 0 0 0 0 0 0 1 0 0 0 0 0 1 2B 0
89 2011-07-25 A+-CARL Frederick Keys Salem Red Sox 4 3 1 1 0 0 0 1 0 0 2 1 0 0 0 0 0 2B 0
90 2011-07-26 A+-CARL Frederick Keys Salem Red Sox 4 4 2 4 0 0 1 2 0 0 0 0 0 0 0 1 0 2B 0
91 2011-07-27 A+-CARL Frederick Keys Salem Red Sox 4 2 0 0 0 0 0 0 2 0 1 0 0 0 0 0 1 2B 0
92 2011-07-28 A+-CARL Frederick Keys Salem Red Sox 4 3 0 0 0 0 0 0 1 0 1 0 0 0 0 0 0 2B 0
93 2011-07-29 A+-CARL Frederick Keys @ Potomac Nationals 4 4 1 1 0 0 0 0 0 0 1 0 0 0 0 0 0 2B 0
94 2011-07-30 A+-CARL Frederick Keys @ Potomac Nationals 5 4 1 1 0 0 0 0 0 0 0 0 1 0 0 0 0 2B 0
95 2011-07-31 A+-CARL Frederick Keys @ Potomac Nationals 4 4 1 1 0 0 0 1 0 0 1 0 0 0 0 1 0 2B 0
96 2011-08-02 A+-CARL Frederick Keys Lynchburg Hillcats 4 3 2 1 0 0 0 0 0 0 0 1 0 0 0 0 0 2B 0
97 2011-08-03 A+-CARL Frederick Keys Lynchburg Hillcats 4 4 0 0 0 0 0 0 0 0 1 0 0 0 0 0 0 2B 0
98 2011-08-04 A+-CARL Frederick Keys Lynchburg Hillcats 4 4 0 1 1 0 0 0 0 0 0 0 0 0 0 0 0 2B 0
99 2011-08-05 A+-CARL Frederick Keys @ Winston-Salem Dash 4 4 0 1 0 0 0 0 0 0 1 0 0 0 0 0 0 2B 0
100 2011-08-06 A+-CARL Frederick Keys @ Winston-Salem Dash 5 5 1 2 0 0 1 4 0 0 0 0 0 0 0 0 0 2B 1
101 2011-08-07 A+-CARL Frederick Keys @ Winston-Salem Dash 4 4 0 2 0 0 0 0 0 0 0 0 0 0 0 0 0 2B,SS 0
102 2011-08-08 A+-CARL Frederick Keys @ Myrtle Beach Pelicans 5 5 1 1 0 0 1 1 0 0 2 0 0 0 0 0 0 2B 0
103 2011-08-09 A+-CARL Frederick Keys @ Myrtle Beach Pelicans 5 5 1 2 2 0 0 0 0 0 1 0 0 0 0 0 0 2B 0
104 2011-08-10 A+-CARL Frederick Keys @ Myrtle Beach Pelicans 5 5 0 3 0 0 0 1 0 0 2 0 0 0 0 0 0 2B 0
105 2011-08-11 A+-CARL Frederick Keys Winston-Salem Dash 4 2 0 0 0 0 0 0 1 0 1 0 1 0 0 0 0 2B 0
106 2011-08-12 A+-CARL Frederick Keys Winston-Salem Dash 5 5 2 4 1 0 1 4 0 0 1 0 0 0 0 0 0 2B 0
107 2011-08-13 A+-CARL Frederick Keys Winston-Salem Dash 5 5 1 3 1 0 0 2 0 0 0 0 0 0 0 0 0 2B 0
108 2011-08-14 A+-CARL Frederick Keys Winston-Salem Dash 4 3 0 1 1 0 0 0 1 0 0 0 0 0 0 0 0 SS 0
109 2011-08-15 A+-CARL Frederick Keys Wilmington Blue Rocks 4 4 0 0 0 0 0 0 0 0 1 0 0 0 0 0 0 2B 0
110 2011-08-16 A+-CARL Frederick Keys Wilmington Blue Rocks 1 1 0 1 0 0 0 0 0 0 0 0 0 0 0 0 1 SS 0
111 2011-08-17 A+-CARL Frederick Keys Wilmington Blue Rocks 4 4 0 2 0 0 0 1 0 0 0 0 0 0 0 0 0 2B 0
112 2011-08-18 A+-CARL Frederick Keys @ Lynchburg Hillcats 5 4 0 1 0 0 0 0 1 0 1 0 0 0 0 0 0 2B 0
113 2011-08-19 A+-CARL Frederick Keys @ Lynchburg Hillcats 4 4 0 1 0 0 0 0 0 0 0 0 0 0 0 0 0 2B 0
114 2011-08-20 A+-CARL Frederick Keys @ Lynchburg Hillcats 5 5 2 2 1 0 1 4 0 0 0 0 0 0 0 0 0 2B 2
115 2011-08-22 A+-CARL Frederick Keys Kinston Indians 4 4 0 0 0 0 0 0 0 0 1 0 0 0 0 0 0 2B 0
116 2011-08-23 A+-CARL Frederick Keys Kinston Indians 4 4 0 1 0 0 0 0 0 0 1 0 0 0 0 0 0 2B 0
117 2011-08-24 A+-CARL Frederick Keys Kinston Indians 5 5 1 2 0 0 0 0 0 0 0 0 0 0 0 0 0 2B 0
118 2011-08-25 A+-CARL Frederick Keys Kinston Indians 4 3 2 1 1 0 0 1 1 0 0 0 0 0 0 0 0 2B 0
119 2011-08-26 A+-CARL Frederick Keys Potomac Nationals 6 6 0 2 0 1 0 2 0 0 0 0 0 0 0 0 0 2B 0
120 2011-08-28 A+-CARL Frederick Keys Potomac Nationals 3 3 0 2 0 0 0 0 0 0 1 0 0 0 0 0 0 2B 0
121 2011-08-28 (2) A+-CARL Frederick Keys Potomac Nationals 3 2 1 1 0 0 0 1 1 0 0 0 0 0 0 0 0 2B 0
122 2011-08-30 A+-CARL Frederick Keys @ Kinston Indians 4 3 0 0 0 0 0 0 0 0 0 0 1 0 0 0 0 2B 0
123 2011-08-31 A+-CARL Frederick Keys @ Kinston Indians 4 4 0 0 0 0 0 0 0 0 0 0 0 0 1 0 0 2B 0
124 2011-09-01 A+-CARL Frederick Keys @ Kinston Indians 5 5 0 1 0 0 0 0 0 0 0 0 0 0 1 0 0 2B 0
125 2011-09-02 A+-CARL Frederick Keys @ Kinston Indians 6 5 1 1 0 0 0 0 1 0 2 0 0 0 0 0 0 2B 0
126 2011-09-03 A+-CARL Frederick Keys @ Wilmington Blue Rocks 4 4 0 1 0 0 0 0 0 0 0 0 0 0 0 1 0 2B 0
127 2011-09-04 A+-CARL Frederick Keys @ Wilmington Blue Rocks 4 3 0 1 0 0 0 0 1 0 1 0 0 0 0 0 0 2B 0
128 2011-09-05 A+-CARL Frederick Keys @ Wilmington Blue Rocks 4 4 0 1 0 0 0 0 0 0 0 0 0 0 0 0 0 2B 0

2011 Player Batting Splits

Split G PA AB R H 2B 3B HR RBI SB CS BB SO BA OBP SLG OPS TB GDP HBP SH SF IBB
Total 128 567 511 82 148 24 5 13 71 12 6 42 76 .290 .349 .432 .781 221 17 6 5 3 1
Home 65 276 250 39 75 12 5 7 36 5 5 20 35 .300 .355 .472 .827 118 8 2 3 1 0
Away 63 291 261 43 73 12 0 6 35 7 1 22 41 .280 .343 .395 .737 103 9 4 2 2 1
vs RHP as RHB 117 397 359 100 20 3 7 41 27 46 .279 .335 .409 .744 147 10 5 3 3 0
vs LHP as RHB 72 170 152 48 4 2 6 30 15 30 .316 .381 .487 .868 74 7 1 2 0 1
April 21 100 90 16 28 5 2 3 14 1 1 8 11 .311 .374 .511 .885 46 4 1 1 0 0
May 27 125 113 23 34 7 1 4 16 3 2 9 21 .301 .352 .487 .839 55 9 1 0 2 0
June 24 101 93 14 26 4 1 1 12 3 0 6 9 .280 .327 .376 .703 35 2 1 0 1 0
July 23 100 84 14 18 0 0 1 8 4 2 12 18 .214 .327 .250 .577 21 0 2 2 0 1
August 28 118 110 14 37 8 1 4 21 0 1 5 14 .336 .371 .536 .907 59 1 1 2 0 0
September 5 23 21 1 5 0 0 0 0 1 0 2 3 .238 .304 .238 .542 5 1 0 0 0 0
2 outs, RISP 70 99 91 24 5 0 5 30 7 18 .264 .323 .484 .807 44 0 1 0 0 0
vs. Younger Pitchers 4 8 8 1 0 0 0 0 0 4 .125 .125 .125 .250 1 1 0 0 0 0
vs. Older Pitchers 128 559 503 147 24 5 13 71 42 72 .292 .352 .437 .789 220 16 6 5 3 1
Please note that splits include both major and minor league stats. We have decided that the splits across all levels is more useful than just minor league stats.

About the Minor League Data

Performance data on minor and international leagues is licensed from and provided by the SABR Minor Leagues Database, a community project sponsored by the Minor Leagues Committee of the Society for American Baseball Research.

The database is under active development. Many statistics are incomplete due to ongoing research and/or limitations in published sources. To learn more about these limitations, or to find out how to contribute, click here.

Minor league Total Zone (Rctch&Rtz, 2005-2009) data provided by Baseballprojection.com and Minorleaguesplits.com.